Terminal Aerodrome Forecast
Issued by NWS

Home | Current Version | Previous Version | Text Only | Print | Product List | Glossary On
Versions: 1 2 3 4 5 6 7 8 9 10 11 12 13 14 15 16 17 18 19 20 21 22 23 24 25 26 27
000
FTUS41 KBUF 282300
TAFIAG
TAF
KIAG 282326Z 2900/2924 28006KT P6SM SKC
     FM290400 VRB03KT P6SM SKC
     FM290900 24004KT P6SM SKC
     FM291400 21010KT P6SM SKC
     FM292000 21014G22KT P6SM FEW250=

USA.gov is the U.S. government's official web portal to all federal, state and local government web resources and services.